Weather observations for the past three days for
Flagler County Airport
Imperial (Metric)
Date Time (edt) Wind (mph) Vis. (mi.) Weather Sky Cond. Temperature (ºF) Relative Humidity Wind Chill (°F) Heat Index (°F) Pressure Precipitation (in)
Air Dwpt 6 hour altimeter (in) sea level (mb) 1 hr 3 hr 6 hr
Max. Min.
08 11:50 NE 10 10.00 Overcast BKN015 BKN022 OVC027 78.8 71.6 79% 82 30 0.0
08 10:50 W 7 10.00 Overcast BKN020 BKN027 OVC080 80.6 71.6 74% 85 30 0.0
08 07:35 SW 5 10.00 Mostly Cloudy BKN015 72.7 71.8 97% 29.97 0.0
08 07:15 SW 3 10.00 Overcast OVC015 72.5 71.6 97% 29.96 0.0
08 06:55 Calm 10.00 Overcast OVC013 72.1 71.2 97% 29.95 0.0
08 06:50 Calm 10.00 Overcast OVC011 71.6 71.6 100% 29.95 0.0
08 06:35 SW 5 10.00 Overcast OVC011 71.8 70.9 97% 29.94 0.0
08 06:15 Calm 10.00 Overcast OVC011 71.6 70.7 97% 29.94 0.0
08 05:55 Calm 10.00 Mostly Cloudy BKN013 70.7 70 98% 29.93 0.0
08 05:50 Calm 10.00 Partly Cloudy SCT013 69.8 69.8 100% 29.93 0.0
08 05:35 Calm 10.00 Fair CLR 70.9 70 97% 29.93 0.0
08 05:15 S 3 10.00 Partly Cloudy SCT014 70.7 69.8 97% 29.92 0.0
08 04:55 Calm 10.00 Partly Cloudy SCT014 71.2 70.2 96% 29.92 0.0
08 04:35 Calm 10.00 Fair CLR 70.9 69.8 96% 29.93 0.0
08 04:15 Calm 10.00 Fair CLR 72 70.3 95% 29.92 0.0
08 03:55 Calm 10.00 Partly Cloudy SCT080 72.1 70.3 94% 29.92 0.0
08 03:35 W 5 10.00 Partly Cloudy SCT080 72.5 70.2 92% 29.93 0.0
08 03:15 W 3 10.00 Fair CLR 72.7 70.2 92% 29.93 0.0
08 02:55 W 3 10.00 Fair CLR 72.9 70 91% 29.94 0.0
08 02:35 W 5 10.00 Fair CLR 73.4 69.6 88% 29.94 0.0
08 02:15 W 6 10.00 Fair CLR 73.4 69.3 87% 29.94 0.0
08 01:55 W 5 10.00 Fair CLR 73.8 69.1 81.5 73.8 85% 29.95 0.0
08 01:35 W 6 10.00 Fair CLR 74.3 68.5 82% 29.95 0.0
08 01:15 W 6 10.00 Fair CLR 74.5 68 80% 29.95 0.0
08 00:55 W 5 10.00 Fair CLR 74.8 67.6 78% 29.94 0.0
08 00:35 W 5 10.00 Fair CLR 75.4 67.3 76% 77 29.94 0.0
08 00:15 W 5 10.00 Fair CLR 76.1 67.1 74% 78 29.94 0.0
07 23:55 W 6 10.00 Fair CLR 76.8 66.7 71% 79 29.94 0.0
07 23:35 W 7 10.00 Fair CLR 77.4 66.4 69% 79 29.94 0.0
07 23:15 W 7 10.00 Fair CLR 77.7 65.8 67% 80 29.94 0.0
07 22:55 W 7 10.00 Fair CLR 78.3 65.1 64% 80 29.93 0.0
07 22:35 W 6 10.00 Fair CLR 78.3 63.3 60% 80 29.93 0.0
07 22:15 W 5 10.00 Fair CLR 78.1 61.7 57% 80 29.93 0.0
07 21:55 W 5 10.00 Fair CLR 79.2 59.9 52% 80 29.91 0.0
07 18:50 SE 6 10.00 Fair CLR 86 66.2 52% 88 29.89 0.0
07 17:50 NE 9 10.00 Fair CLR 86 66.2 52% 88 29.9 0.0
07 15:50 W 9 10.00 Mostly Cloudy BKN080 95 60.8 32% 95 29.9 0.0
07 13:50 W 15 G 23 10.00 Fair CLR 91.4 62.6 38% 92 29.96 0.0
07 12:50 SW 8 10.00 Fair CLR 89.6 64.4 43% 91 29.97 0.0
07 10:50 S 10 G 16 10.00 Fair CLR 84.2 64.4 51% 86 29.99 0.0
07 07:50 S 6 10.00 Fair CLR 71.6 64.4 78% 30 0.0
07 07:35 S 8 10.00 Fair CLR 70.3 63.9 80% 30 0.0
07 07:15 Calm 10.00 Fair CLR 69.4 63.7 82% 30 0.0
07 06:55 Calm 10.00 Fair CLR 68.7 62.6 81% 29.99 0.0
07 06:50 Calm 10.00 Fair CLR 69.8 62.6 78% 30 0.0
07 06:35 S 5 10.00 Fair CLR 68.5 61.7 79% 29.99 0.0
07 06:15 S 5 10.00 Fair CLR 67.3 61 80% 29.99 0.0
07 05:55 S 5 10.00 Fair CLR 66.2 60.3 81% 29.98 0.0
07 05:50 S 5 10.00 Fair CLR 66.2 60.8 83% 29.97 0.0
07 05:35 S 3 10.00 Fair CLR 66.4 60.1 80% 29.97 0.0
07 05:15 Calm 10.00 Fair CLR 66.4 59.4 78% 29.97 0.0
07 04:55 Calm 10.00 Fair CLR 66.4 59.2 78% 29.97 0.0
07 04:35 S 3 10.00 Fair CLR 67.1 59.4 76% 29.97 0.0
07 04:15 S 3 10.00 Fair CLR 68 59.2 74% 29.97 0.0
07 03:55 SW 3 10.00 Fair CLR 68.2 59.2 73% 29.97 0.0
07 03:35 S 6 10.00 Fair CLR 68.5 59.5 73% 29.97 0.0
07 03:15 S 5 10.00 Fair CLR 69.3 59.9 72% 29.97 0.0
07 02:55 S 6 10.00 Fair CLR 69.8 59.9 71% 29.98 0.0
07 02:35 S 5 10.00 Fair CLR 70 60.1 71% 29.99 0.0
07 02:15 S 5 10.00 Fair CLR 69.3 60.4 74% 30 0.0
07 01:55 S 6 10.00 Fair CLR 69.8 60.6 77.2 69.8 73% 30.01 0.0
07 01:35 S 5 10.00 Fair CLR 70.9 60.6 70% 30.01 0.0
07 01:15 S 6 10.00 Fair CLR 71.6 60.8 69% 30.01 0.0
07 00:55 S 5 10.00 Fair CLR 72 60.4 67% 30.01 0.0
07 00:35 S 6 10.00 Fair CLR 71.8 60.4 68% 30.01 0.0
07 00:15 S 6 10.00 Fair CLR 71.6 60.4 68% 30.01 0.0
06 23:55 S 6 10.00 Fair CLR 72.3 60.8 67% 30.02 0.0
06 23:35 S 7 10.00 Fair CLR 72.1 61 68% 30.02 0.0
06 23:15 S 6 10.00 Fair CLR 71.6 61.7 71% 30.01 0.0
06 22:55 S 5 10.00 Fair CLR 71.6 61 69% 30.02 0.0
06 22:35 SW 3 10.00 Fair CLR 72.9 60.6 66% 30.02 0.0
06 22:15 S 3 10.00 Fair CLR 74.3 60.8 63% 30.01 0.0
06 21:55 S 6 10.00 Fair CLR 75.2 61.2 62% 77 30 0.0
06 18:50 SE 8 10.00 Fair CLR 80.6 62.6 54% 82 29.98 0.0
06 17:50 SE 14 10.00 Fair CLR 82.4 60.8 48% 83 29.99 0.0
06 16:50 SE 13 10.00 Fair CLR 82.4 66.2 58% 85 29.99 0.0
06 15:50 SE 13 10.00 Fair CLR 84.2 68 58% 87 30 0.0
06 14:50 E 10 10.00 Fair CLR 86 66.2 52% 88 30.02 0.0
06 13:50 Calm 10.00 Fair CLR 86 62.6 46% 87 30.03 0.0
06 12:50 S 6 10.00 Fair CLR 84.2 62.6 48% 85 30.05 0.0
06 11:50 S 5 10.00 Fair CLR 84.2 62.6 48% 85 30.06 0.0
06 10:50 S 5 10.00 Fair CLR 80.6 64.4 58% 82 30.05 0.0
06 09:50 S 12 10.00 Fair CLR 78.8 66.2 65% 81 30.05 0.0
06 07:50 Calm 10.00 Fair CLR 64.4 62.6 94% 30.03 0.0
06 07:35 Calm 10.00 Fair CLR 62.6 60.8 94% 30.03 0.0
06 07:15 Calm 10.00 Fair CLR 60.6 59 94% 30.03 0.0
06 06:55 Calm 10.00 Fair CLR 58.6 57.4 96% 30.02 0.0
06 06:50 Calm 10.00 Fair CLR 59 57.2 94% 30.02 0.0
06 06:35 Calm 10.00 Fair CLR 58.5 57 95% 30.02 0.0
06 06:15 Calm 10.00 Fair CLR 59.2 57.9 96% 30.02 0.0
06 05:55 Calm 10.00 Fair CLR 59 57.7 96% 30.01 0.0
06 05:50 Calm 10.00 Fair CLR 59 57.2 94% 30.01 0.0
06 05:35 Calm 10.00 Fair CLR 59 57 93% 30.01 0.0
06 05:15 Calm 10.00 Fair CLR 58.5 56.8 94% 30.02 0.0
06 04:55 Calm 10.00 Fair CLR 59.2 56.7 91% 30.01 0.0
06 04:35 Calm 10.00 Fair CLR 59.4 57.2 93% 30.01 0.0
06 04:15 Calm 10.00 Fair CLR 59.4 57.6 94% 30 0.0
06 03:55 Calm 10.00 Fair CLR 59.7 57.6 93% 30.01 0.0
06 03:35 Calm 10.00 Fair CLR 59.4 57.2 93% 30.01 0.0
06 03:15 Calm 10.00 Fair CLR 59.4 57 92% 30.01 0.0
06 02:55 Calm 10.00 Fair CLR 59.9 57.2 91% 30.01 0.0
06 02:35 Calm 10.00 Fair CLR 60.4 57.7 91% 30.02 0.0
06 01:55 Calm 10.00 Fair CLR 61.5 58.5 71.2 61.5 90% 30.03 0.0
06 01:35 Calm 10.00 Fair CLR 61.9 58.5 89% 30.03 0.0
06 01:15 Calm 10.00 Fair CLR 62.1 59.5 92% 30.04 0.0
06 00:55 Calm 10.00 Fair CLR 61.9 58.5 89% 30.04 0.0
06 00:35 Calm 10.00 Fair CLR 61.7 58.8 90% 30.04 0.0
06 00:15 Calm 10.00 Fair CLR 63.7 58.8 84% 30.04 0.0
05 23:55 Calm 10.00 Fair CLR 63 58.3 85% 30.03 0.0
05 23:35 Calm 10.00 Fair CLR 62.1 57.4 85% 30.03 0.0
05 23:15 Calm 10.00 Fair CLR 63.1 56.8 80% 30.02 0.0
05 22:55 Calm 10.00 Fair CLR 63.7 57.2 80% 30.02 0.0
05 22:35 Calm 10.00 Fair CLR 64.4 56.8 77% 30.02 0.0
05 22:15 SE 3 10.00 Fair CLR 65.1 56.7 74% 30.02 0.0
05 21:55 SE 3 10.00 Fair CLR 66.2 56.7 72% 30.02 0.0
05 18:50 E 10 10.00 Fair CLR 75.2 55.4 50% 78 30 0.0
05 17:50 E 7 10.00 Fair CLR 78.8 53.6 42% 79 30.01 0.0
05 16:50 E 12 10.00 Fair CLR 78.8 53.6 42% 79 30.01 0.0
05 15:50 E 9 G 18 10.00 Fair CLR 78.8 55.4 45% 79 30.02 0.0
05 14:50 E 9 10.00 Fair CLR 80.6 55.4 42% 81 30.03 0.0
05 13:50 E 10 10.00 Partly Cloudy SCT070 78.8 57.2 48% 80 30.05 0.0
05 12:50 SE 9 10.00 Partly Cloudy SCT070 78.8 55.4 45% 79 30.06 0.0
Date Time (edt) Wind (mph) Vis. (mi.) Weather Sky Cond. Air Dwpt Max. Min. Relative Humidity Wind Chill (°F) Heat Index (°F) altimeter (in) sea level (mb) 1 hr 3 hr 6 hr
6 hour
Temperature (ºF) Pressure Precipitation (in)